sensor_id;sensor_type;location;lat;lon;timestamp;pressure;altitude;pressure_sealevel;temperature;humidity
61900;BME280;47853;55.890;37.664;2023-06-22T00:00:57;99556.63;;;19.95;49.99
61900;BME280;47853;55.890;37.664;2023-06-22T00:03:24;99542.44;;;20.19;49.97
61900;BME280;47853;55.890;37.664;2023-06-22T00:05:50;99549.72;;;19.99;49.78
61900;BME280;47853;55.890;37.664;2023-06-22T00:08:17;99549.88;;;20.05;50.04
61900;BME280;47853;55.890;37.664;2023-06-22T00:10:43;99569.19;;;20.02;50.63
61900;BME280;47853;55.890;37.664;2023-06-22T00:13:09;99561.66;;;19.92;51.39
61900;BME280;47853;55.890;37.664;2023-06-22T00:15:36;99573.06;;;19.87;51.68
61900;BME280;47853;55.890;37.664;2023-06-22T00:18:01;99563.47;;;19.54;50.39
61900;BME280;47853;55.890;37.664;2023-06-22T00:20:27;99563.75;;;19.64;52.42
61900;BME280;47853;55.890;37.664;2023-06-22T00:22:52;99569.31;;;19.88;51.48
61900;BME280;47853;55.890;37.664;2023-06-22T00:25:17;99559.97;;;19.53;52.36
61900;BME280;47853;55.890;37.664;2023-06-22T00:27:43;99567.28;;;19.46;53.41
61900;BME280;47853;55.890;37.664;2023-06-22T00:30:08;99557.47;;;19.33;54.08
61900;BME280;47853;55.890;37.664;2023-06-22T00:32:34;99556.34;;;19.16;55.03
61900;BME280;47853;55.890;37.664;2023-06-22T00:34:59;99550.03;;;19.03;54.83
61900;BME280;47853;55.890;37.664;2023-06-22T00:37:24;99551.75;;;18.65;55.65
61900;BME280;47853;55.890;37.664;2023-06-22T00:39:50;99558.59;;;18.61;58.04
61900;BME280;47853;55.890;37.664;2023-06-22T00:42:15;99563.47;;;18.71;58.17
61900;BME280;47853;55.890;37.664;2023-06-22T00:44:40;99561.66;;;18.97;57.41
61900;BME280;47853;55.890;37.664;2023-06-22T00:47:06;99545.22;;;18.80;54.84
61900;BME280;47853;55.890;37.664;2023-06-22T00:49:31;99561.84;;;18.95;57.33
61900;BME280;47853;55.890;37.664;2023-06-22T00:51:57;99555.09;;;18.86;55.98
61900;BME280;47853;55.890;37.664;2023-06-22T00:54:22;99555.56;;;18.76;55.22
61900;BME280;47853;55.890;37.664;2023-06-22T00:56:48;99544.41;;;18.79;57.33
61900;BME280;47853;55.890;37.664;2023-06-22T00:59:13;99546.22;;;18.86;58.09
61900;BME280;47853;55.890;37.664;2023-06-22T01:01:39;99541.09;;;18.77;59.15
61900;BME280;47853;55.890;37.664;2023-06-22T01:04:04;99549.44;;;18.69;59.31
61900;BME280;47853;55.890;37.664;2023-06-22T01:06:39;99542.13;;;18.76;58.62
61900;BME280;47853;55.890;37.664;2023-06-22T01:09:21;99542.94;;;18.51;58.84
61900;BME280;47853;55.890;37.664;2023-06-22T01:11:57;99567.03;;;18.65;60.67
61900;BME280;47853;55.890;37.664;2023-06-22T01:16:57;99571.00;;;18.62;62.41
61900;BME280;47853;55.890;37.664;2023-06-22T01:19:44;99556.88;;;18.67;60.01
61900;BME280;47853;55.890;37.664;2023-06-22T01:22:12;99560.16;;;18.76;59.27
61900;BME280;47853;55.890;37.664;2023-06-22T01:27:47;99570.81;;;18.89;60.23
61900;BME280;47853;55.890;37.664;2023-06-22T01:30:18;99571.38;;;18.66;61.31
61900;BME280;47853;55.890;37.664;2023-06-22T01:32:44;99556.09;;;18.92;60.39
61900;BME280;47853;55.890;37.664;2023-06-22T01:35:10;99571.47;;;19.17;59.16
61900;BME280;47853;55.890;37.664;2023-06-22T01:37:38;99565.97;;;19.05;60.02
61900;BME280;47853;55.890;37.664;2023-06-22T01:40:05;99557.41;;;19.15;59.57
61900;BME280;47853;55.890;37.664;2023-06-22T01:42:31;99564.63;;;18.89;60.54
61900;BME280;47853;55.890;37.664;2023-06-22T01:44:58;99561.19;;;18.75;60.91
61900;BME280;47853;55.890;37.664;2023-06-22T01:47:24;99566.16;;;18.71;61.76
61900;BME280;47853;55.890;37.664;2023-06-22T01:49:50;99564.09;;;18.73;60.40
61900;BME280;47853;55.890;37.664;2023-06-22T01:52:16;99559.31;;;18.75;59.96
61900;BME280;47853;55.890;37.664;2023-06-22T01:54:41;99565.59;;;19.01;59.16
61900;BME280;47853;55.890;37.664;2023-06-22T01:57:07;99549.63;;;18.99;58.69
61900;BME280;47853;55.890;37.664;2023-06-22T01:59:37;99559.69;;;18.86;58.90
61900;BME280;47853;55.890;37.664;2023-06-22T02:02:07;99557.53;;;18.94;58.84
61900;BME280;47853;55.890;37.664;2023-06-22T02:04:57;99568.72;;;18.91;60.19
61900;BME280;47853;55.890;37.664;2023-06-22T02:07:31;99561.03;;;18.69;61.07
61900;BME280;47853;55.890;37.664;2023-06-22T02:09:59;99556.63;;;18.75;60.79
61900;BME280;47853;55.890;37.664;2023-06-22T02:12:28;99555.63;;;18.69;60.91
61900;BME280;47853;55.890;37.664;2023-06-22T02:14:56;99555.84;;;18.68;61.04
61900;BME280;47853;55.890;37.664;2023-06-22T02:17:21;99520.66;;;18.37;62.91
61900;BME280;47853;55.890;37.664;2023-06-22T02:19:48;99542.84;;;18.90;61.18
61900;BME280;47853;55.890;37.664;2023-06-22T02:22:14;99521.13;;;18.92;60.07
61900;BME280;47853;55.890;37.664;2023-06-22T02:24:39;99502.28;;;18.66;61.32
61900;BME280;47853;55.890;37.664;2023-06-22T02:27:04;99521.00;;;19.12;60.00
61900;BME280;47853;55.890;37.664;2023-06-22T02:29:30;99532.50;;;19.45;58.71
61900;BME280;47853;55.890;37.664;2023-06-22T02:31:55;99521.56;;;19.39;59.72
61900;BME280;47853;55.890;37.664;2023-06-22T02:34:21;99519.41;;;20.04;52.09
61900;BME280;47853;55.890;37.664;2023-06-22T02:36:48;99519.38;;;19.85;50.62
61900;BME280;47853;55.890;37.664;2023-06-22T02:39:13;99514.91;;;20.17;48.86
61900;BME280;47853;55.890;37.664;2023-06-22T02:41:39;99519.78;;;19.70;50.80
61900;BME280;47853;55.890;37.664;2023-06-22T02:44:04;99524.78;;;19.85;48.78
61900;BME280;47853;55.890;37.664;2023-06-22T02:46:29;99509.16;;;20.13;48.97
61900;BME280;47853;55.890;37.664;2023-06-22T02:48:55;99522.00;;;20.29;48.99
61900;BME280;47853;55.890;37.664;2023-06-22T02:51:20;99510.25;;;19.86;50.43
61900;BME280;47853;55.890;37.664;2023-06-22T02:53:45;99504.81;;;19.56;51.31
61900;BME280;47853;55.890;37.664;2023-06-22T02:56:11;99514.16;;;20.09;52.04
61900;BME280;47853;55.890;37.664;2023-06-22T02:58:36;99506.25;;;19.96;51.68
61900;BME280;47853;55.890;37.664;2023-06-22T03:01:01;99515.88;;;20.22;49.54
61900;BME280;47853;55.890;37.664;2023-06-22T03:03:27;99511.78;;;20.32;50.33
61900;BME280;47853;55.890;37.664;2023-06-22T03:05:52;99498.81;;;20.10;50.84
61900;BME280;47853;55.890;37.664;2023-06-22T03:08:17;99497.91;;;20.16;51.29
61900;BME280;47853;55.890;37.664;2023-06-22T03:10:43;99505.94;;;20.04;51.94
61900;BME280;47853;55.890;37.664;2023-06-22T03:13:08;99505.47;;;20.07;53.70
61900;BME280;47853;55.890;37.664;2023-06-22T03:15:33;99511.00;;;20.85;50.83
61900;BME280;47853;55.890;37.664;2023-06-22T03:17:59;99498.47;;;20.79;51.59
61900;BME280;47853;55.890;37.664;2023-06-22T03:20:24;99501.66;;;20.88;51.58
61900;BME280;47853;55.890;37.664;2023-06-22T03:22:49;99493.06;;;20.91;51.05
61900;BME280;47853;55.890;37.664;2023-06-22T03:25:15;99487.09;;;21.13;48.19
61900;BME280;47853;55.890;37.664;2023-06-22T03:27:41;99494.03;;;20.85;50.12
61900;BME280;47853;55.890;37.664;2023-06-22T03:30:09;99485.91;;;20.85;49.91
61900;BME280;47853;55.890;37.664;2023-06-22T03:32:35;99476.25;;;20.77;51.42
61900;BME280;47853;55.890;37.664;2023-06-22T03:35:01;99477.13;;;21.13;50.07
61900;BME280;47853;55.890;37.664;2023-06-22T03:37:27;99486.38;;;20.82;51.32
61900;BME280;47853;55.890;37.664;2023-06-22T03:39:53;99474.75;;;21.41;48.44
61900;BME280;47853;55.890;37.664;2023-06-22T03:42:18;99476.75;;;20.98;49.06
61900;BME280;47853;55.890;37.664;2023-06-22T03:44:43;99481.09;;;21.35;49.83
61900;BME280;47853;55.890;37.664;2023-06-22T03:47:09;99482.03;;;21.05;48.63
61900;BME280;47853;55.890;37.664;2023-06-22T03:49:34;99466.06;;;21.15;47.78
61900;BME280;47853;55.890;37.664;2023-06-22T03:52:00;99480.28;;;20.98;47.46
61900;BME280;47853;55.890;37.664;2023-06-22T03:54:26;99475.94;;;20.97;45.07
61900;BME280;47853;55.890;37.664;2023-06-22T03:56:51;99486.72;;;21.33;46.21
61900;BME280;47853;55.890;37.664;2023-06-22T03:59:17;99472.78;;;21.12;44.93
61900;BME280;47853;55.890;37.664;2023-06-22T04:01:42;99479.47;;;21.10;46.02
61900;BME280;47853;55.890;37.664;2023-06-22T04:04:07;99478.66;;;20.97;46.25
61900;BME280;47853;55.890;37.664;2023-06-22T04:06:33;99471.41;;;20.13;47.97
61900;BME280;47853;55.890;37.664;2023-06-22T04:08:58;99469.03;;;19.86;49.69
61900;BME280;47853;55.890;37.664;2023-06-22T04:11:23;99457.22;;;20.60;48.21
61900;BME280;47853;55.890;37.664;2023-06-22T04:13:49;99477.13;;;20.47;47.06
61900;BME280;47853;55.890;37.664;2023-06-22T04:16:14;99466.31;;;20.05;49.25
61900;BME280;47853;55.890;37.664;2023-06-22T04:18:39;99449.63;;;20.69;48.15
61900;BME280;47853;55.890;37.664;2023-06-22T04:21:05;99459.50;;;21.11;47.19
61900;BME280;47853;55.890;37.664;2023-06-22T04:23:30;99463.59;;;21.37;45.87
61900;BME280;47853;55.890;37.664;2023-06-22T04:25:55;99465.13;;;21.45;45.14
61900;BME280;47853;55.890;37.664;2023-06-22T04:28:21;99445.44;;;20.85;45.86
61900;BME280;47853;55.890;37.664;2023-06-22T04:30:46;99465.53;;;20.47;45.97
61900;BME280;47853;55.890;37.664;2023-06-22T04:33:15;99463.34;;;20.55;46.51
61900;BME280;47853;55.890;37.664;2023-06-22T04:35:40;99475.44;;;19.92;47.03
61900;BME280;47853;55.890;37.664;2023-06-22T04:38:06;99445.72;;;20.10;46.58
61900;BME280;47853;55.890;37.664;2023-06-22T04:40:31;99457.75;;;20.81;44.77
61900;BME280;47853;55.890;37.664;2023-06-22T04:42:57;99449.84;;;20.55;44.35
61900;BME280;47853;55.890;37.664;2023-06-22T04:45:22;99457.25;;;20.72;44.37
61900;BME280;47853;55.890;37.664;2023-06-22T04:47:48;99458.59;;;20.93;43.61
61900;BME280;47853;55.890;37.664;2023-06-22T04:50:14;99448.53;;;21.41;42.21
61900;BME280;47853;55.890;37.664;2023-06-22T04:52:40;99460.66;;;21.51;42.05
61900;BME280;47853;55.890;37.664;2023-06-22T04:55:05;99458.94;;;22.14;40.74
61900;BME280;47853;55.890;37.664;2023-06-22T04:57:31;99442.03;;;21.78;41.30
61900;BME280;47853;55.890;37.664;2023-06-22T04:59:56;99449.06;;;22.08;41.29
61900;BME280;47853;55.890;37.664;2023-06-22T05:02:22;99449.72;;;21.98;41.06
61900;BME280;47853;55.890;37.664;2023-06-22T05:04:47;99452.59;;;22.09;41.02
61900;BME280;47853;55.890;37.664;2023-06-22T05:07:12;99429.38;;;22.25;40.48
61900;BME280;47853;55.890;37.664;2023-06-22T05:09:38;99451.88;;;22.30;40.31
61900;BME280;47853;55.890;37.664;2023-06-22T05:12:03;99455.63;;;23.10;39.21
61900;BME280;47853;55.890;37.664;2023-06-22T05:14:29;99455.75;;;23.20;38.08
61900;BME280;47853;55.890;37.664;2023-06-22T05:16:55;99442.25;;;23.42;38.94
61900;BME280;47853;55.890;37.664;2023-06-22T05:19:20;99456.66;;;24.15;37.64
61900;BME280;47853;55.890;37.664;2023-06-22T05:21:45;99447.41;;;23.22;39.09
61900;BME280;47853;55.890;37.664;2023-06-22T05:24:11;99441.75;;;23.06;40.16
61900;BME280;47853;55.890;37.664;2023-06-22T05:26:36;99459.59;;;23.41;39.34
61900;BME280;47853;55.890;37.664;2023-06-22T05:29:02;99456.25;;;24.01;38.38
61900;BME280;47853;55.890;37.664;2023-06-22T05:31:28;99430.88;;;23.90;38.39
61900;BME280;47853;55.890;37.664;2023-06-22T05:33:54;99448.56;;;23.09;39.20
61900;BME280;47853;55.890;37.664;2023-06-22T05:36:20;99432.38;;;23.31;39.70
61900;BME280;47853;55.890;37.664;2023-06-22T05:38:46;99449.88;;;22.89;40.36
61900;BME280;47853;55.890;37.664;2023-06-22T05:41:11;99434.19;;;23.08;39.44
61900;BME280;47853;55.890;37.664;2023-06-22T05:43:37;99435.72;;;23.38;38.92
61900;BME280;47853;55.890;37.664;2023-06-22T05:46:03;99444.94;;;23.87;38.58
61900;BME280;47853;55.890;37.664;2023-06-22T05:48:29;99454.38;;;24.61;37.17
61900;BME280;47853;55.890;37.664;2023-06-22T05:50:54;99459.16;;;25.30;36.02
61900;BME280;47853;55.890;37.664;2023-06-22T05:53:19;99453.13;;;25.17;36.26
61900;BME280;47853;55.890;37.664;2023-06-22T05:55:45;99444.66;;;25.62;34.92
61900;BME280;47853;55.890;37.664;2023-06-22T05:58:11;99460.06;;;27.18;32.92
61900;BME280;47853;55.890;37.664;2023-06-22T06:00:36;99447.34;;;28.89;30.20
61900;BME280;47853;55.890;37.664;2023-06-22T06:03:02;99455.88;;;28.02;31.44
61900;BME280;47853;55.890;37.664;2023-06-22T06:05:27;99449.97;;;27.90;31.45
61900;BME280;47853;55.890;37.664;2023-06-22T06:07:53;99446.84;;;28.52;30.87
61900;BME280;47853;55.890;37.664;2023-06-22T06:10:18;99458.53;;;29.17;29.62
61900;BME280;47853;55.890;37.664;2023-06-22T06:12:43;99449.72;;;30.12;28.00
61900;BME280;47853;55.890;37.664;2023-06-22T06:15:09;99438.03;;;30.39;27.57
61900;BME280;47853;55.890;37.664;2023-06-22T06:17:34;99455.59;;;27.43;29.96
61900;BME280;47853;55.890;37.664;2023-06-22T06:20:00;99450.84;;;27.75;29.74
61900;BME280;47853;55.890;37.664;2023-06-22T06:22:26;99433.16;;;28.12;29.62
61900;BME280;47853;55.890;37.664;2023-06-22T06:24:51;99445.63;;;29.22;28.91
61900;BME280;47853;55.890;37.664;2023-06-22T06:27:16;99441.31;;;30.22;27.02
61900;BME280;47853;55.890;37.664;2023-06-22T06:29:42;99453.69;;;30.20;26.28
61900;BME280;47853;55.890;37.664;2023-06-22T06:32:07;99446.03;;;31.58;25.33
61900;BME280;47853;55.890;37.664;2023-06-22T06:34:33;99442.66;;;31.05;25.66
61900;BME280;47853;55.890;37.664;2023-06-22T06:36:58;99436.59;;;30.28;25.95
61900;BME280;47853;55.890;37.664;2023-06-22T06:39:24;99442.88;;;30.29;26.03
61900;BME280;47853;55.890;37.664;2023-06-22T06:41:49;99450.63;;;32.00;24.38
61900;BME280;47853;55.890;37.664;2023-06-22T06:44:16;99453.41;;;30.88;24.15
61900;BME280;47853;55.890;37.664;2023-06-22T06:46:42;99435.28;;;30.06;23.97
61900;BME280;47853;55.890;37.664;2023-06-22T06:49:07;99442.13;;;30.23;24.74
61900;BME280;47853;55.890;37.664;2023-06-22T06:51:32;99449.44;;;30.80;24.32
61900;BME280;47853;55.890;37.664;2023-06-22T06:53:58;99448.72;;;30.55;25.41
61900;BME280;47853;55.890;37.664;2023-06-22T06:56:23;99434.53;;;31.56;24.21
61900;BME280;47853;55.890;37.664;2023-06-22T06:58:50;99446.56;;;32.88;22.66
61900;BME280;47853;55.890;37.664;2023-06-22T07:01:21;99424.03;;;32.77;22.52
61900;BME280;47853;55.890;37.664;2023-06-22T07:03:46;99428.84;;;32.94;21.68
61900;BME280;47853;55.890;37.664;2023-06-22T07:06:13;99445.38;;;31.89;22.58
61900;BME280;47853;55.890;37.664;2023-06-22T07:08:38;99442.81;;;32.52;21.90
61900;BME280;47853;55.890;37.664;2023-06-22T07:11:04;99436.09;;;32.36;22.62
61900;BME280;47853;55.890;37.664;2023-06-22T07:13:29;99442.22;;;32.64;21.63
61900;BME280;47853;55.890;37.664;2023-06-22T07:15:54;99437.66;;;33.32;21.75
61900;BME280;47853;55.890;37.664;2023-06-22T07:18:20;99438.66;;;32.87;22.06
61900;BME280;47853;55.890;37.664;2023-06-22T07:20:45;99432.84;;;32.65;22.16
61900;BME280;47853;55.890;37.664;2023-06-22T07:23:10;99438.78;;;33.22;21.08
61900;BME280;47853;55.890;37.664;2023-06-22T07:25:36;99430.56;;;32.59;21.83
61900;BME280;47853;55.890;37.664;2023-06-22T07:28:03;99450.22;;;32.29;22.50
61900;BME280;47853;55.890;37.664;2023-06-22T07:30:32;99434.44;;;33.21;21.67
61900;BME280;47853;55.890;37.664;2023-06-22T07:32:58;99434.44;;;34.14;21.37
61900;BME280;47853;55.890;37.664;2023-06-22T07:35:24;99428.88;;;33.79;22.17
61900;BME280;47853;55.890;37.664;2023-06-22T07:37:49;99434.63;;;32.61;22.93
61900;BME280;47853;55.890;37.664;2023-06-22T07:40:15;99422.38;;;32.22;23.14
61900;BME280;47853;55.890;37.664;2023-06-22T07:42:40;99431.00;;;32.52;22.81
61900;BME280;47853;55.890;37.664;2023-06-22T07:45:06;99428.28;;;33.24;22.58
61900;BME280;47853;55.890;37.664;2023-06-22T07:47:32;99427.13;;;34.27;21.41
61900;BME280;47853;55.890;37.664;2023-06-22T07:49:58;99426.28;;;34.62;20.77
61900;BME280;47853;55.890;37.664;2023-06-22T07:52:24;99422.41;;;33.66;21.65
61900;BME280;47853;55.890;37.664;2023-06-22T07:54:50;99422.72;;;33.73;21.71
61900;BME280;47853;55.890;37.664;2023-06-22T07:57:15;99426.22;;;35.18;20.39
61900;BME280;47853;55.890;37.664;2023-06-22T07:59:40;99414.34;;;33.96;20.28
61900;BME280;47853;55.890;37.664;2023-06-22T08:02:06;99409.81;;;34.00;21.30
61900;BME280;47853;55.890;37.664;2023-06-22T08:04:31;99413.63;;;32.43;21.70
61900;BME280;47853;55.890;37.664;2023-06-22T08:06:57;99397.09;;;32.11;22.39
61900;BME280;47853;55.890;37.664;2023-06-22T08:09:25;99410.56;;;32.98;21.60
61900;BME280;47853;55.890;37.664;2023-06-22T08:11:50;99406.59;;;32.28;22.35
61900;BME280;47853;55.890;37.664;2023-06-22T08:14:15;99384.53;;;32.42;21.61
61900;BME280;47853;55.890;37.664;2023-06-22T08:16:41;99379.56;;;31.47;23.29
61900;BME280;47853;55.890;37.664;2023-06-22T08:19:16;99388.56;;;32.67;22.33
61900;BME280;47853;55.890;37.664;2023-06-22T08:21:41;99373.25;;;34.95;19.85
61900;BME280;47853;55.890;37.664;2023-06-22T08:24:06;99356.59;;;35.21;19.10
61900;BME280;47853;55.890;37.664;2023-06-22T08:26:32;99389.31;;;35.02;19.76
61900;BME280;47853;55.890;37.664;2023-06-22T08:28:57;99401.84;;;35.50;19.28
61900;BME280;47853;55.890;37.664;2023-06-22T08:31:23;99404.91;;;36.34;18.02
61900;BME280;47853;55.890;37.664;2023-06-22T08:33:48;99402.63;;;34.99;19.19
61900;BME280;47853;55.890;37.664;2023-06-22T08:36:13;99394.81;;;35.02;19.46
61900;BME280;47853;55.890;37.664;2023-06-22T08:38:39;99401.59;;;37.24;18.16
61900;BME280;47853;55.890;37.664;2023-06-22T08:41:04;99377.00;;;36.72;18.08
61900;BME280;47853;55.890;37.664;2023-06-22T08:43:30;99395.38;;;33.94;20.29
61900;BME280;47853;55.890;37.664;2023-06-22T08:45:55;99388.47;;;34.62;20.22
61900;BME280;47853;55.890;37.664;2023-06-22T08:48:20;99399.34;;;34.59;19.63
61900;BME280;47853;55.890;37.664;2023-06-22T08:50:46;99385.72;;;35.61;19.27
61900;BME280;47853;55.890;37.664;2023-06-22T08:53:11;99397.53;;;36.25;18.79
61900;BME280;47853;55.890;37.664;2023-06-22T08:55:36;99378.38;;;36.54;18.44
61900;BME280;47853;55.890;37.664;2023-06-22T08:58:02;99386.78;;;34.79;19.75
61900;BME280;47853;55.890;37.664;2023-06-22T09:00:27;99384.84;;;36.70;18.57
61900;BME280;47853;55.890;37.664;2023-06-22T09:02:52;99375.41;;;36.25;18.53
61900;BME280;47853;55.890;37.664;2023-06-22T09:05:18;99356.06;;;36.25;18.60
61900;BME280;47853;55.890;37.664;2023-06-22T09:07:43;99358.47;;;36.73;17.92
61900;BME280;47853;55.890;37.664;2023-06-22T09:10:08;99362.94;;;36.19;18.37
61900;BME280;47853;55.890;37.664;2023-06-22T09:12:34;99360.09;;;36.99;17.88
61900;BME280;47853;55.890;37.664;2023-06-22T09:15:00;99366.59;;;37.32;17.44
61900;BME280;47853;55.890;37.664;2023-06-22T09:17:31;99357.41;;;36.65;17.44
61900;BME280;47853;55.890;37.664;2023-06-22T09:19:56;99355.13;;;36.00;18.24
61900;BME280;47853;55.890;37.664;2023-06-22T09:22:21;99361.22;;;36.85;18.31
61900;BME280;47853;55.890;37.664;2023-06-22T09:24:47;99366.09;;;37.95;16.80
61900;BME280;47853;55.890;37.664;2023-06-22T09:27:12;99369.53;;;35.93;18.39
61900;BME280;47853;55.890;37.664;2023-06-22T09:29:37;99372.78;;;34.54;20.33
61900;BME280;47853;55.890;37.664;2023-06-22T09:32:06;99359.97;;;35.69;18.91
61900;BME280;47853;55.890;37.664;2023-06-22T09:34:32;99361.81;;;37.04;18.06
61900;BME280;47853;55.890;37.664;2023-06-22T09:36:57;99341.91;;;37.80;17.52
61900;BME280;47853;55.890;37.664;2023-06-22T09:39:22;99342.19;;;36.47;18.26
61900;BME280;47853;55.890;37.664;2023-06-22T09:41:48;99337.16;;;37.64;17.22
61900;BME280;47853;55.890;37.664;2023-06-22T09:44:13;99343.50;;;38.70;17.13
61900;BME280;47853;55.890;37.664;2023-06-22T09:46:42;99340.31;;;37.79;17.19
61900;BME280;47853;55.890;37.664;2023-06-22T09:49:07;99342.59;;;36.36;18.36
61900;BME280;47853;55.890;37.664;2023-06-22T09:51:32;99354.81;;;36.35;18.42
61900;BME280;47853;55.890;37.664;2023-06-22T09:53:58;99343.63;;;33.30;20.35
61900;BME280;47853;55.890;37.664;2023-06-22T09:56:23;99342.19;;;31.88;22.76
61900;BME280;47853;55.890;37.664;2023-06-22T09:58:48;99333.31;;;32.77;22.23
61900;BME280;47853;55.890;37.664;2023-06-22T10:04:39;99273.75;;;33.75;20.82
61900;BME280;47853;55.890;37.664;2023-06-22T10:07:09;99290.00;;;35.99;18.59
61900;BME280;47853;55.890;37.664;2023-06-22T10:09:37;99346.56;;;37.22;17.93
61900;BME280;47853;55.890;37.664;2023-06-22T10:12:03;99289.38;;;38.12;17.37
61900;BME280;47853;55.890;37.664;2023-06-22T10:14:28;99304.47;;;37.29;18.17
61900;BME280;47853;55.890;37.664;2023-06-22T10:16:54;99292.88;;;37.11;17.85
61900;BME280;47853;55.890;37.664;2023-06-22T10:19:21;99276.63;;;36.35;18.17
61900;BME280;47853;55.890;37.664;2023-06-22T10:21:47;99279.44;;;35.04;19.61
61900;BME280;47853;55.890;37.664;2023-06-22T10:24:15;99333.16;;;37.37;18.56
61900;BME280;47853;55.890;37.664;2023-06-22T10:27:42;99285.47;;;38.45;16.70
61900;BME280;47853;55.890;37.664;2023-06-22T10:29:58;99268.88;;;38.00;17.70
61900;BME280;47853;55.890;37.664;2023-06-22T10:32:33;99318.34;;;38.30;18.03
61900;BME280;47853;55.890;37.664;2023-06-22T10:35:01;99281.84;;;38.61;17.66
61900;BME280;47853;55.890;37.664;2023-06-22T10:37:29;99268.03;;;39.55;17.21
61900;BME280;47853;55.890;37.664;2023-06-22T10:39:54;99266.16;;;39.59;16.47
61900;BME280;47853;55.890;37.664;2023-06-22T10:42:20;99273.47;;;38.25;17.53
61900;BME280;47853;55.890;37.664;2023-06-22T10:44:45;99257.78;;;38.16;17.93
61900;BME280;47853;55.890;37.664;2023-06-22T10:47:16;99265.44;;;36.93;18.41
61900;BME280;47853;55.890;37.664;2023-06-22T10:49:51;99265.50;;;35.64;19.90
61900;BME280;47853;55.890;37.664;2023-06-22T10:52:16;99288.38;;;37.06;19.05
61900;BME280;47853;55.890;37.664;2023-06-22T10:54:42;99271.41;;;37.93;18.14
61900;BME280;47853;55.890;37.664;2023-06-22T10:57:10;99247.06;;;35.55;19.70
61900;BME280;47853;55.890;37.664;2023-06-22T10:59:35;99239.09;;;34.30;20.89
61900;BME280;47853;55.890;37.664;2023-06-22T11:02:01;99257.50;;;32.36;22.80
61900;BME280;47853;55.890;37.664;2023-06-22T11:04:26;99294.75;;;32.51;23.24
61900;BME280;47853;55.890;37.664;2023-06-22T11:06:51;99244.72;;;35.79;20.26
61900;BME280;47853;55.890;37.664;2023-06-22T11:09:20;99222.16;;;35.43;20.14
61900;BME280;47853;55.890;37.664;2023-06-22T11:12:00;99283.75;;;33.09;23.44
61900;BME280;47853;55.890;37.664;2023-06-22T11:14:28;99250.50;;;31.30;24.36
61900;BME280;47853;55.890;37.664;2023-06-22T11:16:54;99274.16;;;32.39;23.98
61900;BME280;47853;55.890;37.664;2023-06-22T11:19:19;99204.44;;;32.84;22.68
61900;BME280;47853;55.890;37.664;2023-06-22T11:21:45;99214.63;;;33.72;22.53
61900;BME280;47853;55.890;37.664;2023-06-22T11:24:10;99271.28;;;33.99;22.29
61900;BME280;47853;55.890;37.664;2023-06-22T11:26:38;99205.81;;;35.38;20.73
61900;BME280;47853;55.890;37.664;2023-06-22T11:29:04;99218.44;;;36.31;19.97
61900;BME280;47853;55.890;37.664;2023-06-22T11:31:29;99232.38;;;38.30;18.45
61900;BME280;47853;55.890;37.664;2023-06-22T11:33:55;99224.88;;;38.31;18.32
61900;BME280;47853;55.890;37.664;2023-06-22T11:36:20;99208.97;;;36.82;18.93
61900;BME280;47853;55.890;37.664;2023-06-22T11:38:46;99215.97;;;37.33;18.77
61900;BME280;47853;55.890;37.664;2023-06-22T11:41:11;99238.81;;;36.89;19.79
61900;BME280;47853;55.890;37.664;2023-06-22T11:43:37;99199.34;;;34.91;20.98
61900;BME280;47853;55.890;37.664;2023-06-22T11:46:03;99218.66;;;35.55;20.34
61900;BME280;47853;55.890;37.664;2023-06-22T11:48:31;99209.25;;;36.27;18.92
61900;BME280;47853;55.890;37.664;2023-06-22T11:50:57;99218.69;;;37.73;18.20
61900;BME280;47853;55.890;37.664;2023-06-22T11:53:24;99195.44;;;38.58;16.99
61900;BME280;47853;55.890;37.664;2023-06-22T11:55:50;99178.97;;;36.06;18.58
61900;BME280;47853;55.890;37.664;2023-06-22T11:58:18;99170.09;;;35.20;20.02
61900;BME280;47853;55.890;37.664;2023-06-22T12:00:52;99182.22;;;36.86;18.42
61900;BME280;47853;55.890;37.664;2023-06-22T12:03:17;99207.97;;;36.62;19.01
61900;BME280;47853;55.890;37.664;2023-06-22T12:05:46;99196.00;;;36.33;19.51
61900;BME280;47853;55.890;37.664;2023-06-22T12:08:11;99206.84;;;35.67;19.78
61900;BME280;47853;55.890;37.664;2023-06-22T12:10:37;99214.69;;;35.90;19.67
61900;BME280;47853;55.890;37.664;2023-06-22T12:13:02;99206.72;;;33.53;21.62
61900;BME280;47853;55.890;37.664;2023-06-22T12:15:27;99209.03;;;33.07;22.11
61900;BME280;47853;55.890;37.664;2023-06-22T12:17:53;99204.03;;;32.42;23.37
61900;BME280;47853;55.890;37.664;2023-06-22T12:20:18;99195.25;;;33.60;21.84
61900;BME280;47853;55.890;37.664;2023-06-22T12:22:44;99198.78;;;34.17;21.64
61900;BME280;47853;55.890;37.664;2023-06-22T12:25:10;99186.97;;;31.59;23.95
61900;BME280;47853;55.890;37.664;2023-06-22T12:27:36;99176.63;;;30.74;25.26
61900;BME280;47853;55.890;37.664;2023-06-22T12:30:02;99179.09;;;31.66;24.50
61900;BME280;47853;55.890;37.664;2023-06-22T12:32:27;99189.38;;;33.70;22.04
61900;BME280;47853;55.890;37.664;2023-06-22T12:34:53;99168.13;;;35.21;20.91
61900;BME280;47853;55.890;37.664;2023-06-22T12:37:18;99178.03;;;36.51;19.62
61900;BME280;47853;55.890;37.664;2023-06-22T12:39:44;99181.38;;;36.57;19.28
61900;BME280;47853;55.890;37.664;2023-06-22T12:42:09;99174.47;;;38.25;17.54
61900;BME280;47853;55.890;37.664;2023-06-22T12:44:38;99171.53;;;38.18;17.86
61900;BME280;47853;55.890;37.664;2023-06-22T12:47:04;99156.34;;;39.03;17.52
61900;BME280;47853;55.890;37.664;2023-06-22T12:49:29;99168.09;;;38.96;17.64
61900;BME280;47853;55.890;37.664;2023-06-22T12:51:55;99163.63;;;38.72;17.62
61900;BME280;47853;55.890;37.664;2023-06-22T12:54:20;99160.88;;;36.58;19.21